Time;durP1;ratioP1;P1;durP2;ratioP2;P2;SDS_P1;SDS_P2;PMS_P1;PMS_P2;Temp;Humidity;BMP_temperature;BMP_pressure;BME280_temperature;BME280_humidity;BME280_pressure;Samples;Min_cycle;Max_cycle;Signal;HPM_P1;HPM_P2
2023/04/17 00:05:03;;;;;;;12.32;6.05;;;9.00;87.00;;;;;;20561822;28;20050;-40
2023/04/17 00:15:04;;;;;;;18.10;6.35;;;8.90;95.00;;;;;;20548864;28;20046;-40
2023/04/17 00:25:06;;;;;;;12.20;5.30;;;8.70;95.40;;;;;;20543812;28;20536;-40
2023/04/17 00:35:07;;;;;;;12.93;6.15;;;8.80;98.50;;;;;;20538170;28;20050;-40
2023/04/17 00:45:10;;;;;;;13.75;5.72;;;8.70;99.90;;;;;;20560445;28;20042;-40
2023/04/17 00:55:12;;;;;;;22.98;7.90;;;8.70;99.90;;;;;;20556840;28;20047;-40
2023/04/17 01:05:13;;;;;;;13.85;7.15;;;8.80;99.90;;;;;;20556929;28;20122;-40
2023/04/17 01:15:15;;;;;;;11.27;5.53;;;8.80;99.90;;;;;;20543965;28;20046;-40
2023/04/17 01:25:16;;;;;;;13.95;5.82;;;8.70;99.90;;;;;;20550878;28;20054;-40
2023/04/17 01:35:18;;;;;;;11.43;5.68;;;8.60;99.90;;;;;;20539817;28;20495;-40
2023/04/17 01:45:20;;;;;;;11.88;6.78;;;8.70;99.90;;;;;;20552305;28;20053;-40
2023/04/17 01:55:21;;;;;;;13.20;6.10;;;8.70;99.90;;;;;;20551683;28;20050;-40
2023/04/17 02:05:22;;;;;;;15.20;6.30;;;8.60;99.90;;;;;;20542965;28;20042;-40
2023/04/17 02:15:23;;;;;;;13.82;5.47;;;8.70;99.90;;;;;;20549315;28;20053;-40
2023/04/17 02:25:24;;;;;;;13.57;5.55;;;8.70;99.90;;;;;;20542284;28;20054;-40
2023/04/17 02:35:27;;;;;;;10.23;4.75;;;8.60;99.90;;;;;;20537508;28;20517;-40
2023/04/17 02:45:28;;;;;;;8.85;5.15;;;8.70;99.90;;;;;;20538821;28;20204;-40
2023/04/17 02:55:29;;;;;;;10.02;5.40;;;8.70;99.90;;;;;;20559770;28;20069;-40
2023/04/17 03:05:30;;;;;;;10.20;4.85;;;8.70;90.50;;;;;;20548093;28;20047;-40
2023/04/17 03:15:32;;;;;;;20.23;6.20;;;8.60;75.20;;;;;;20551050;28;20039;-40
2023/04/17 03:25:32;;;;;;;11.23;4.65;;;8.60;58.70;;;;;;20563643;28;20062;-40
2023/04/17 03:35:34;;;;;;;15.55;6.65;;;8.60;68.40;;;;;;20559623;28;20463;-40
2023/04/17 03:45:35;;;;;;;16.75;6.80;;;8.50;88.70;;;;;;20552327;28;20050;-40
2023/04/17 03:55:36;;;;;;;10.10;5.72;;;8.60;73.80;;;;;;20565366;28;20065;-40
2023/04/17 04:05:37;;;;;;;11.30;5.97;;;8.60;64.30;;;;;;20553884;28;20057;-40
2023/04/17 04:15:38;;;;;;;12.70;6.60;;;8.60;58.20;;;;;;20555387;28;20156;-40
2023/04/17 04:26:00;;;;;;;11.20;5.60;;;8.60;60.50;;;;;;20563595;28;20675;-40
2023/04/17 04:36:01;;;;;;;9.70;5.20;;;8.60;60.80;;;;;;20535745;28;20054;-40
2023/04/17 04:46:04;;;;;;;14.20;6.85;;;8.50;67.10;;;;;;20538979;28;20078;-40
2023/04/17 04:56:05;;;;;;;11.95;6.28;;;8.60;62.20;;;;;;20554438;28;20055;-40
2023/04/17 05:06:06;;;;;;;10.80;6.22;;;8.50;77.60;;;;;;20553375;28;20057;-40
2023/04/17 05:16:07;;;;;;;12.27;4.93;;;8.50;88.20;;;;;;20537986;28;20038;-40
2023/04/17 05:26:08;;;;;;;10.45;5.43;;;8.50;86.80;;;;;;20525329;28;20118;-40
2023/04/17 05:36:09;;;;;;;17.95;6.50;;;8.60;91.90;;;;;;20541411;28;20149;-40
2023/04/17 05:46:10;;;;;;;15.23;6.55;;;8.70;93.30;;;;;;20541322;28;20466;-40
2023/04/17 05:56:11;;;;;;;12.82;6.72;;;8.70;91.80;;;;;;20553801;28;20390;-40
2023/04/17 06:06:13;;;;;;;11.27;5.38;;;8.70;90.30;;;;;;20551801;28;20172;-39
2023/04/17 06:16:14;;;;;;;9.85;5.57;;;8.70;89.80;;;;;;20552147;28;20043;-40
2023/04/17 06:26:15;;;;;;;11.45;6.55;;;8.80;85.20;;;;;;20538643;28;20059;-40
2023/04/17 06:36:16;;;;;;;9.63;5.45;;;8.80;75.10;;;;;;20539477;28;20047;-40
2023/04/17 06:46:17;;;;;;;20.40;6.65;;;8.90;65.50;;;;;;20557338;28;20053;-40
2023/04/17 06:56:19;;;;;;;12.98;7.18;;;8.90;49.70;;;;;;20574608;28;20046;-40
2023/04/17 07:06:22;;;;;;;17.40;8.07;;;8.80;52.20;;;;;;20557994;28;20050;-40
2023/04/17 07:16:23;;;;;;;11.20;6.82;;;8.90;54.30;;;;;;20567239;28;20042;-40
2023/04/17 07:26:24;;;;;;;13.88;7.45;;;8.90;49.90;;;;;;20506640;28;20074;-40
2023/04/17 07:36:27;;;;;;;19.35;7.75;;;9.00;57.20;;;;;;20548192;28;20362;-40
2023/04/17 07:46:28;;;;;;;26.35;9.93;;;9.10;53.90;;;;;;20570374;28;20047;-40
2023/04/17 07:56:30;;;;;;;14.63;7.82;;;9.10;55.60;;;;;;20561180;28;20498;-40
2023/04/17 08:06:31;;;;;;;19.77;8.57;;;9.20;46.70;;;;;;20554899;28;20053;-40
2023/04/17 08:16:32;;;;;;;17.42;7.80;;;9.20;51.40;;;;;;20565900;28;20049;-40
2023/04/17 08:26:34;;;;;;;13.50;6.32;;;9.20;49.60;;;;;;20566518;28;20057;-39
2023/04/17 08:36:35;;;;;;;15.82;6.85;;;9.40;51.20;;;;;;20544085;28;20508;-39
2023/04/17 08:46:37;;;;;;;16.63;7.45;;;9.60;26.50;;;;;;20567462;28;20054;-40
2023/04/17 08:56:38;;;;;;;13.68;7.32;;;9.80;21.90;;;;;;20561212;28;20065;-40
2023/04/17 09:06:53;;;;;;;14.00;5.90;;;10.20;12.60;;;;;;20580022;28;20323;-39
2023/04/17 09:16:54;;;;;;;13.30;6.63;;;10.30;1.00;;;;;;20575698;28;20632;-40
2023/04/17 09:26:55;;;;;;;15.23;4.70;;;10.60;1.00;;;;;;20567038;28;20730;-40
2023/04/17 09:36:56;;;;;;;11.52;5.22;;;11.00;1.00;;;;;;20584528;28;20057;-39
2023/04/17 09:46:59;;;;;;;9.43;4.65;;;11.50;1.00;;;;;;20591087;28;20062;-40
2023/04/17 09:57:02;;;;;;;16.02;5.55;;;11.90;1.00;;;;;;20576647;28;20042;-40
2023/04/17 10:07:03;;;;;;;13.15;6.53;;;12.20;1.00;;;;;;20559230;28;20049;-39
2023/04/17 10:17:36;;;;;;;11.60;5.00;;;12.70;1.00;;;;;;20543759;28;20066;-40
2023/04/17 10:27:37;;;;;;;16.05;5.18;;;12.60;1.00;;;;;;20576842;28;20774;-40
2023/04/17 10:37:50;;;;;;;9.45;4.72;;;12.30;1.00;;;;;;20585683;28;20498;-39
2023/04/17 10:47:57;;;;;;;10.27;5.25;;;12.70;1.00;;;;;;20598225;28;20482;-39
2023/04/17 10:58:00;;;;;;;10.00;4.73;;;13.00;1.00;;;;;;20601644;28;20687;-40
2023/04/17 11:08:02;;;;;;;10.05;5.07;;;13.50;1.00;;;;;;20573554;28;20046;-40
2023/04/17 11:18:03;;;;;;;10.95;5.32;;;14.30;1.00;;;;;;20556477;28;20038;-40
2023/04/17 11:28:05;;;;;;;10.80;5.13;;;15.20;1.00;;;;;;20579172;28;20054;-40
2023/04/17 11:38:19;;;;;;;11.40;4.65;;;15.30;1.00;;;;;;20577231;28;20030;-38
2023/04/17 11:48:25;;;;;;;8.45;4.13;;;15.60;1.00;;;;;;20568868;28;20054;-38
2023/04/17 11:58:26;;;;;;;9.35;4.53;;;15.60;1.00;;;;;;20570480;28;20050;-38
2023/04/17 12:08:28;;;;;;;8.40;4.70;;;14.90;1.00;;;;;;20581343;28;20053;-40
2023/04/17 12:18:29;;;;;;;9.38;5.32;;;14.50;1.00;;;;;;20549586;28;20065;-40
2023/04/17 12:28:30;;;;;;;9.32;4.60;;;14.50;1.00;;;;;;20532290;28;20199;-40
2023/04/17 12:38:32;;;;;;;11.60;5.53;;;14.80;1.00;;;;;;20574099;28;20070;-37
2023/04/17 12:48:33;;;;;;;10.77;5.40;;;15.00;1.00;;;;;;20595233;28;20053;-38
2023/04/17 12:58:34;;;;;;;9.55;4.10;;;15.80;1.00;;;;;;20601199;28;20045;-38
2023/04/17 13:08:35;;;;;;;9.32;5.32;;;16.00;1.00;;;;;;20608637;28;20057;-38
2023/04/17 13:18:36;;;;;;;10.30;5.22;;;16.40;1.00;;;;;;20588424;28;20046;-38
2023/04/17 13:28:38;;;;;;;8.88;4.40;;;17.20;1.00;;;;;;20576873;28;20049;-38
2023/04/17 13:38:40;;;;;;;10.10;4.78;;;17.70;1.00;;;;;;20591039;28;20088;-38
2023/04/17 13:48:42;;;;;;;7.97;4.30;;;17.80;1.00;;;;;;20593661;28;20046;-38
2023/04/17 13:58:43;;;;;;;6.90;4.10;;;18.30;1.00;;;;;;20605418;28;20050;-38
2023/04/17 14:08:45;;;;;;;8.48;4.13;;;18.40;1.00;;;;;;20586196;28;20042;-38
2023/04/17 14:18:47;;;;;;;8.63;4.57;;;17.60;1.00;;;;;;20591835;28;20405;-38
2023/04/17 14:28:48;;;;;;;14.80;5.88;;;16.90;1.00;;;;;;20574763;28;20126;-38
2023/04/17 14:38:51;;;;;;;9.32;5.25;;;16.50;1.00;;;;;;20554125;28;20042;-38
2023/04/17 14:48:55;;;;;;;9.93;5.18;;;16.40;1.00;;;;;;20587091;28;20050;-38
2023/04/17 14:58:56;;;;;;;11.60;4.85;;;16.20;1.00;;;;;;20583570;28;20065;-38
2023/04/17 15:08:57;;;;;;;7.72;4.30;;;16.00;1.00;;;;;;20588173;28;20034;-38
2023/04/17 15:18:58;;;;;;;11.82;4.75;;;15.90;1.00;;;;;;20605436;28;20058;-38
2023/04/17 15:28:59;;;;;;;9.05;4.35;;;15.80;1.00;;;;;;20588234;28;20061;-38
2023/04/17 15:39:01;;;;;;;10.52;5.75;;;15.50;1.00;;;;;;20581700;28;20037;-38
2023/04/17 15:49:02;;;;;;;8.43;4.53;;;15.30;1.00;;;;;;20594267;28;20384;-38
2023/04/17 15:59:03;;;;;;;10.65;5.15;;;15.30;1.00;;;;;;20601079;28;20042;-38
2023/04/17 16:09:04;;;;;;;8.23;4.03;;;15.20;1.00;;;;;;20595617;28;21421;-37
2023/04/17 16:19:06;;;;;;;8.95;3.63;;;14.80;1.00;;;;;;20587697;28;20050;-37
2023/04/17 16:29:07;;;;;;;7.88;4.10;;;14.70;1.00;;;;;;20615431;28;20913;-38
2023/04/17 16:39:08;;;;;;;10.98;5.00;;;14.50;1.00;;;;;;20614092;28;20046;-38
2023/04/17 16:49:10;;;;;;;9.35;5.20;;;14.30;1.00;;;;;;20602780;28;20041;-38
2023/04/17 16:59:11;;;;;;;9.95;4.97;;;14.10;1.00;;;;;;20592372;28;20517;-39
2023/04/17 17:09:12;;;;;;;9.10;4.35;;;14.00;1.00;;;;;;20589719;28;20426;-38
2023/04/17 17:19:13;;;;;;;11.93;4.60;;;13.90;1.00;;;;;;20601216;28;20049;-39
2023/04/17 17:29:14;;;;;;;11.13;4.53;;;13.90;1.00;;;;;;20591129;28;20034;-38
2023/04/17 17:39:15;;;;;;;13.40;6.43;;;13.70;1.00;;;;;;20583435;28;20122;-39
2023/04/17 17:49:16;;;;;;;8.50;4.60;;;13.60;1.00;;;;;;20582752;28;20134;-38
2023/04/17 17:59:17;;;;;;;8.80;4.60;;;13.40;1.00;;;;;;20592281;28;20038;-38
2023/04/17 18:09:18;;;;;;;13.27;5.85;;;13.10;1.00;;;;;;20585885;28;20042;-38
2023/04/17 18:19:20;;;;;;;12.80;6.00;;;13.00;1.00;;;;;;20578633;28;20561;-39
2023/04/17 18:29:21;;;;;;;11.98;5.53;;;12.80;1.00;;;;;;20581290;28;20043;-38
2023/04/17 18:39:22;;;;;;;15.73;6.65;;;12.70;1.00;;;;;;20538997;28;20060;-39
2023/04/17 18:49:23;;;;;;;13.25;6.85;;;12.50;1.00;;;;;;20591122;28;20495;-39
2023/04/17 18:59:26;;;;;;;14.35;6.30;;;12.30;1.00;;;;;;20597176;28;20042;-39
2023/04/17 19:09:27;;;;;;;11.75;6.47;;;12.00;1.00;;;;;;20590544;28;20042;-39
2023/04/17 19:19:29;;;;;;;11.43;5.35;;;11.80;1.00;;;;;;20585332;28;20374;-39
2023/04/17 19:29:30;;;;;;;16.38;6.13;;;11.60;1.00;;;;;;20592277;28;20599;-39
2023/04/17 19:39:31;;;;;;;19.63;7.72;;;11.60;3.30;;;;;;20593590;28;20528;-39
2023/04/17 19:49:32;;;;;;;19.23;7.80;;;11.40;5.50;;;;;;20591776;28;20386;-40
2023/04/17 19:59:33;;;;;;;12.77;6.40;;;11.30;11.00;;;;;;20603760;28;20042;-39
2023/04/17 20:09:34;;;;;;;16.42;7.32;;;11.10;15.40;;;;;;20571164;28;20500;-39
2023/04/17 20:19:35;;;;;;;14.85;6.43;;;11.00;16.10;;;;;;20591247;28;20049;-39
2023/04/17 20:29:36;;;;;;;9.88;5.93;;;10.90;14.60;;;;;;20594478;28;20044;-40
2023/04/17 20:39:39;;;;;;;9.25;5.55;;;10.80;10.70;;;;;;20589851;28;20041;-39
2023/04/17 20:49:40;;;;;;;9.98;4.63;;;10.80;8.00;;;;;;20582157;28;20577;-39
2023/04/17 20:59:41;;;;;;;10.23;5.30;;;10.60;5.10;;;;;;20583441;28;20038;-39
2023/04/17 21:09:42;;;;;;;10.93;4.28;;;10.50;5.50;;;;;;20579608;28;20057;-39
2023/04/17 21:19:44;;;;;;;9.05;4.07;;;10.50;1.00;;;;;;20592101;28;20045;-40
2023/04/17 21:29:45;;;;;;;11.52;5.20;;;10.40;1.00;;;;;;20588712;28;20165;-40
2023/04/17 21:39:47;;;;;;;8.57;4.50;;;10.30;1.00;;;;;;20530012;28;20052;-40
2023/04/17 21:49:48;;;;;;;9.73;5.32;;;10.20;1.00;;;;;;20579659;28;20050;-40
2023/04/17 21:59:49;;;;;;;8.80;4.65;;;10.10;1.00;;;;;;20591872;28;20045;-40
2023/04/17 22:09:50;;;;;;;9.82;5.28;;;10.10;1.20;;;;;;20581633;28;20501;-39
2023/04/17 22:19:51;;;;;;;10.23;3.63;;;10.00;3.00;;;;;;20572239;28;20038;-40
2023/04/17 22:29:52;;;;;;;12.98;5.85;;;9.90;5.30;;;;;;20584371;28;20051;-40
2023/04/17 22:39:53;;;;;;;11.25;5.75;;;9.80;8.70;;;;;;20585341;28;20042;-40
2023/04/17 22:49:54;;;;;;;12.63;5.97;;;9.80;13.00;;;;;;20573728;28;20498;-40
2023/04/17 22:59:56;;;;;;;11.98;5.65;;;9.70;16.00;;;;;;20574299;28;20062;-39
2023/04/17 23:09:57;;;;;;;10.15;5.80;;;9.70;15.00;;;;;;20579465;28;20042;-39
2023/04/17 23:19:58;;;;;;;10.52;5.28;;;9.60;15.00;;;;;;20575075;28;20038;-39
2023/04/17 23:29:59;;;;;;;11.93;5.40;;;9.60;6.40;;;;;;20587123;28;20046;-39
2023/04/17 23:40:00;;;;;;;9.15;5.22;;;9.40;6.30;;;;;;20585964;28;20034;-39
2023/04/17 23:50:02;;;;;;;9.32;4.72;;;9.30;1.40;;;;;;20597352;28;20054;-39
